sensor_id;sensor_type;location;lat;lon;timestamp;pressure;altitude;pressure_sealevel;temperature;humidity
51849;BME280;38952;51.090;-1.832;2023-04-30T00:01:41;100921.84;;;7.95;91.13
51849;BME280;38952;51.090;-1.832;2023-04-30T00:04:06;100935.31;;;8.01;90.93
51849;BME280;38952;51.090;-1.832;2023-04-30T00:06:44;100919.59;;;7.92;91.12
51849;BME280;38952;51.090;-1.832;2023-04-30T00:09:15;100903.47;;;7.78;91.42
51849;BME280;38952;51.090;-1.832;2023-04-30T00:11:40;100911.03;;;7.88;90.78
51849;BME280;38952;51.090;-1.832;2023-04-30T00:14:06;100914.63;;;7.89;90.99
51849;BME280;38952;51.090;-1.832;2023-04-30T00:16:33;100931.19;;;7.99;90.90
51849;BME280;38952;51.090;-1.832;2023-04-30T00:18:59;100922.16;;;7.86;90.49
51849;BME280;38952;51.090;-1.832;2023-04-30T00:21:24;100927.03;;;7.84;90.74
51849;BME280;38952;51.090;-1.832;2023-04-30T00:23:52;100928.34;;;7.82;90.71
51849;BME280;38952;51.090;-1.832;2023-04-30T00:26:18;100922.16;;;7.75;90.63
51849;BME280;38952;51.090;-1.832;2023-04-30T00:28:43;100919.78;;;7.66;90.27
51849;BME280;38952;51.090;-1.832;2023-04-30T00:31:09;100920.25;;;7.63;90.73
51849;BME280;38952;51.090;-1.832;2023-04-30T00:33:34;100922.38;;;7.61;91.20
51849;BME280;38952;51.090;-1.832;2023-04-30T00:36:00;100923.69;;;7.59;91.15
51849;BME280;38952;51.090;-1.832;2023-04-30T00:38:25;100920.72;;;7.60;91.21
51849;BME280;38952;51.090;-1.832;2023-04-30T00:40:51;100921.44;;;7.56;91.40
51849;BME280;38952;51.090;-1.832;2023-04-30T00:43:16;100929.13;;;7.59;91.04
51849;BME280;38952;51.090;-1.832;2023-04-30T00:45:42;100924.72;;;7.58;90.96
51849;BME280;38952;51.090;-1.832;2023-04-30T00:48:07;100920.38;;;7.57;91.03
51849;BME280;38952;51.090;-1.832;2023-04-30T00:50:35;100910.78;;;7.54;91.32
51849;BME280;38952;51.090;-1.832;2023-04-30T00:53:01;100922.00;;;7.58;90.95
51849;BME280;38952;51.090;-1.832;2023-04-30T00:55:26;100908.75;;;7.49;91.11
51849;BME280;38952;51.090;-1.832;2023-04-30T00:57:57;100914.69;;;7.46;91.20
51849;BME280;38952;51.090;-1.832;2023-04-30T01:00:24;100914.22;;;7.49;91.33
51849;BME280;38952;51.090;-1.832;2023-04-30T01:02:49;100913.00;;;7.45;91.14
51849;BME280;38952;51.090;-1.832;2023-04-30T01:05:15;100916.19;;;7.42;91.25
51849;BME280;38952;51.090;-1.832;2023-04-30T01:07:40;100901.88;;;7.35;91.65
51849;BME280;38952;51.090;-1.832;2023-04-30T01:10:10;100907.31;;;7.35;91.54
51849;BME280;38952;51.090;-1.832;2023-04-30T01:12:45;100892.00;;;7.22;91.27
51849;BME280;38952;51.090;-1.832;2023-04-30T01:15:58;100903.03;;;7.27;91.65
51849;BME280;38952;51.090;-1.832;2023-04-30T01:18:10;100896.41;;;7.23;91.83
51849;BME280;38952;51.090;-1.832;2023-04-30T01:20:43;100892.56;;;7.12;91.91
51849;BME280;38952;51.090;-1.832;2023-04-30T01:26:06;100903.09;;;7.09;91.95
51849;BME280;38952;51.090;-1.832;2023-04-30T01:28:35;100902.13;;;7.03;92.44
51849;BME280;38952;51.090;-1.832;2023-04-30T01:31:00;100909.44;;;7.03;92.12
51849;BME280;38952;51.090;-1.832;2023-04-30T01:33:26;100889.06;;;6.93;91.62
51849;BME280;38952;51.090;-1.832;2023-04-30T01:41:34;100907.88;;;6.95;91.41
51849;BME280;38952;51.090;-1.832;2023-04-30T01:46:45;100902.16;;;6.85;91.98
51849;BME280;38952;51.090;-1.832;2023-04-30T01:52:31;100905.50;;;6.87;92.54
51849;BME280;38952;51.090;-1.832;2023-04-30T01:55:07;100913.03;;;6.85;92.58
51849;BME280;38952;51.090;-1.832;2023-04-30T01:57:39;100904.28;;;6.82;91.83
51849;BME280;38952;51.090;-1.832;2023-04-30T02:00:07;100891.38;;;6.78;91.49
51849;BME280;38952;51.090;-1.832;2023-04-30T02:02:36;100898.25;;;6.80;91.75
51849;BME280;38952;51.090;-1.832;2023-04-30T02:05:01;100887.00;;;6.77;92.74
51849;BME280;38952;51.090;-1.832;2023-04-30T02:07:44;100904.75;;;6.79;92.76
51849;BME280;38952;51.090;-1.832;2023-04-30T02:10:11;100908.03;;;6.81;92.18
51849;BME280;38952;51.090;-1.832;2023-04-30T02:12:37;100908.91;;;6.82;92.22
51849;BME280;38952;51.090;-1.832;2023-04-30T02:15:04;100895.16;;;6.77;92.67
51849;BME280;38952;51.090;-1.832;2023-04-30T02:17:30;100898.84;;;6.82;92.52
51849;BME280;38952;51.090;-1.832;2023-04-30T02:19:56;100908.44;;;6.85;92.89
51849;BME280;38952;51.090;-1.832;2023-04-30T02:22:22;100903.06;;;6.78;93.11
51849;BME280;38952;51.090;-1.832;2023-04-30T02:24:48;100903.06;;;6.78;92.90
51849;BME280;38952;51.090;-1.832;2023-04-30T02:27:14;100896.44;;;6.74;92.75
51849;BME280;38952;51.090;-1.832;2023-04-30T02:29:39;100901.28;;;6.72;92.73
51849;BME280;38952;51.090;-1.832;2023-04-30T02:32:05;100901.88;;;6.74;93.28
51849;BME280;38952;51.090;-1.832;2023-04-30T02:34:30;100899.38;;;6.73;93.93
51849;BME280;38952;51.090;-1.832;2023-04-30T02:36:56;100888.16;;;6.69;93.47
51849;BME280;38952;51.090;-1.832;2023-04-30T02:39:21;100910.25;;;6.73;93.51
51849;BME280;38952;51.090;-1.832;2023-04-30T02:41:46;100906.94;;;6.71;93.62
51849;BME280;38952;51.090;-1.832;2023-04-30T02:44:12;100904.22;;;6.71;94.00
51849;BME280;38952;51.090;-1.832;2023-04-30T02:46:37;100903.59;;;6.69;94.06
51849;BME280;38952;51.090;-1.832;2023-04-30T02:49:03;100896.31;;;6.69;93.95
51849;BME280;38952;51.090;-1.832;2023-04-30T02:51:28;100908.38;;;6.73;93.53
51849;BME280;38952;51.090;-1.832;2023-04-30T02:53:53;100901.75;;;6.69;94.22
51849;BME280;38952;51.090;-1.832;2023-04-30T02:56:19;100900.53;;;6.65;94.03
51849;BME280;38952;51.090;-1.832;2023-04-30T02:58:45;100901.56;;;6.64;93.61
51849;BME280;38952;51.090;-1.832;2023-04-30T03:01:14;100907.25;;;6.62;94.60
51849;BME280;38952;51.090;-1.832;2023-04-30T03:03:40;100898.72;;;6.59;94.48
51849;BME280;38952;51.090;-1.832;2023-04-30T03:06:05;100901.06;;;6.55;94.57
51849;BME280;38952;51.090;-1.832;2023-04-30T03:08:31;100893.59;;;6.51;94.21
51849;BME280;38952;51.090;-1.832;2023-04-30T03:10:56;100893.13;;;6.54;93.98
51849;BME280;38952;51.090;-1.832;2023-04-30T03:13:21;100895.25;;;6.52;94.27
51849;BME280;38952;51.090;-1.832;2023-04-30T03:15:56;100890.75;;;6.45;94.74
51849;BME280;38952;51.090;-1.832;2023-04-30T03:18:22;100889.31;;;6.43;94.71
51849;BME280;38952;51.090;-1.832;2023-04-30T03:20:47;100881.38;;;6.41;94.39
51849;BME280;38952;51.090;-1.832;2023-04-30T03:23:12;100874.75;;;6.37;94.04
51849;BME280;38952;51.090;-1.832;2023-04-30T03:25:38;100890.13;;;6.43;94.83
51849;BME280;38952;51.090;-1.832;2023-04-30T03:28:03;100877.22;;;6.39;94.12
51849;BME280;38952;51.090;-1.832;2023-04-30T03:30:29;100881.00;;;6.38;94.43
51849;BME280;38952;51.090;-1.832;2023-04-30T03:32:54;100880.63;;;6.34;94.14
51849;BME280;38952;51.090;-1.832;2023-04-30T03:35:20;100883.81;;;6.31;93.79
51849;BME280;38952;51.090;-1.832;2023-04-30T03:37:45;100883.81;;;6.31;94.77
51849;BME280;38952;51.090;-1.832;2023-04-30T03:40:11;100876.09;;;6.28;94.88
51849;BME280;38952;51.090;-1.832;2023-04-30T03:42:37;100877.00;;;6.22;94.76
51849;BME280;38952;51.090;-1.832;2023-04-30T03:45:03;100873.50;;;6.15;94.75
51849;BME280;38952;51.090;-1.832;2023-04-30T03:47:28;100873.59;;;6.08;94.33
51849;BME280;38952;51.090;-1.832;2023-04-30T03:49:54;100880.91;;;6.07;94.61
51849;BME280;38952;51.090;-1.832;2023-04-30T03:52:20;100874.28;;;6.03;94.46
51849;BME280;38952;51.090;-1.832;2023-04-30T03:54:46;100869.72;;;5.97;94.67
51849;BME280;38952;51.090;-1.832;2023-04-30T03:57:11;100855.38;;;5.90;94.97
51849;BME280;38952;51.090;-1.832;2023-04-30T03:59:39;100875.16;;;5.97;95.11
51849;BME280;38952;51.090;-1.832;2023-04-30T04:02:05;100866.84;;;5.92;94.89
51849;BME280;38952;51.090;-1.832;2023-04-30T04:04:33;100881.63;;;5.96;95.15
51849;BME280;38952;51.090;-1.832;2023-04-30T04:06:59;100877.09;;;5.90;94.41
51849;BME280;38952;51.090;-1.832;2023-04-30T04:09:26;100876.66;;;5.93;95.19
51849;BME280;38952;51.090;-1.832;2023-04-30T04:11:52;100874.38;;;5.90;94.80
51849;BME280;38952;51.090;-1.832;2023-04-30T04:14:17;100886.44;;;5.94;95.02
51849;BME280;38952;51.090;-1.832;2023-04-30T04:16:43;100875.56;;;5.94;94.27
51849;BME280;38952;51.090;-1.832;2023-04-30T04:19:08;100874.97;;;5.92;95.26
51849;BME280;38952;51.090;-1.832;2023-04-30T04:21:35;100863.13;;;5.86;95.14
51849;BME280;38952;51.090;-1.832;2023-04-30T04:24:00;100875.56;;;5.94;95.02
51849;BME280;38952;51.090;-1.832;2023-04-30T04:26:32;100880.38;;;5.99;95.16
51849;BME280;38952;51.090;-1.832;2023-04-30T04:28:58;100862.56;;;6.03;94.98
51849;BME280;38952;51.090;-1.832;2023-04-30T04:31:23;100879.78;;;6.34;94.49
51849;BME280;38952;51.090;-1.832;2023-04-30T04:33:49;100885.72;;;6.61;94.27
51849;BME280;38952;51.090;-1.832;2023-04-30T04:36:24;100875.06;;;6.78;93.65
51849;BME280;38952;51.090;-1.832;2023-04-30T04:38:52;100873.72;;;6.99;92.46
51849;BME280;38952;51.090;-1.832;2023-04-30T04:41:17;100859.91;;;7.12;92.09
51849;BME280;38952;51.090;-1.832;2023-04-30T04:43:43;100880.09;;;7.35;91.51
51849;BME280;38952;51.090;-1.832;2023-04-30T04:46:09;100890.66;;;7.55;91.47
51849;BME280;38952;51.090;-1.832;2023-04-30T04:48:34;100892.94;;;7.70;91.63
51849;BME280;38952;51.090;-1.832;2023-04-30T04:50:59;100883.81;;;7.76;90.98
51849;BME280;38952;51.090;-1.832;2023-04-30T04:53:25;100882.38;;;7.85;90.91
51849;BME280;38952;51.090;-1.832;2023-04-30T04:55:50;100888.31;;;7.94;90.98
51849;BME280;38952;51.090;-1.832;2023-04-30T04:58:16;100887.47;;;8.06;90.69
51849;BME280;38952;51.090;-1.832;2023-04-30T05:00:43;100873.53;;;8.02;90.49
51849;BME280;38952;51.090;-1.832;2023-04-30T05:03:08;100879.06;;;8.19;90.93
51849;BME280;38952;51.090;-1.832;2023-04-30T05:05:34;100871.00;;;8.24;90.42
51849;BME280;38952;51.090;-1.832;2023-04-30T05:07:59;100872.88;;;8.35;90.47
51849;BME280;38952;51.090;-1.832;2023-04-30T05:10:25;100884.72;;;8.41;90.47
51849;BME280;38952;51.090;-1.832;2023-04-30T05:12:50;100867.78;;;8.39;90.69
51849;BME280;38952;51.090;-1.832;2023-04-30T05:15:16;100859.25;;;8.47;90.33
51849;BME280;38952;51.090;-1.832;2023-04-30T05:17:41;100874.97;;;8.57;90.26
51849;BME280;38952;51.090;-1.832;2023-04-30T05:20:07;100872.72;;;8.54;89.96
51849;BME280;38952;51.090;-1.832;2023-04-30T05:22:33;100869.69;;;8.50;90.71
51849;BME280;38952;51.090;-1.832;2023-04-30T05:24:58;100870.16;;;8.47;90.70
51849;BME280;38952;51.090;-1.832;2023-04-30T05:27:24;100878.81;;;8.44;91.45
51849;BME280;38952;51.090;-1.832;2023-04-30T05:29:51;100871.78;;;8.48;91.52
51849;BME280;38952;51.090;-1.832;2023-04-30T05:32:16;100874.63;;;8.53;90.77
51849;BME280;38952;51.090;-1.832;2023-04-30T05:34:41;100874.97;;;8.57;91.17
51849;BME280;38952;51.090;-1.832;2023-04-30T05:37:07;100874.84;;;8.64;91.15
51849;BME280;38952;51.090;-1.832;2023-04-30T05:39:32;100875.66;;;8.64;91.61
51849;BME280;38952;51.090;-1.832;2023-04-30T05:41:58;100867.25;;;8.66;91.05
51849;BME280;38952;51.090;-1.832;2023-04-30T05:44:23;100879.75;;;8.79;91.25
51849;BME280;38952;51.090;-1.832;2023-04-30T05:46:49;100885.41;;;8.89;91.19
51849;BME280;38952;51.090;-1.832;2023-04-30T05:49:14;100876.59;;;8.99;91.00
51849;BME280;38952;51.090;-1.832;2023-04-30T05:51:40;100886.81;;;9.20;90.69
51849;BME280;38952;51.090;-1.832;2023-04-30T05:54:05;100887.94;;;9.36;90.19
51849;BME280;38952;51.090;-1.832;2023-04-30T05:56:31;100883.63;;;9.40;89.99
51849;BME280;38952;51.090;-1.832;2023-04-30T05:58:56;100890.09;;;9.51;89.67
51849;BME280;38952;51.090;-1.832;2023-04-30T06:01:21;100895.13;;;9.59;89.34
51849;BME280;38952;51.090;-1.832;2023-04-30T06:03:47;100903.25;;;9.71;88.99
51849;BME280;38952;51.090;-1.832;2023-04-30T06:06:13;100896.22;;;9.75;89.25
51849;BME280;38952;51.090;-1.832;2023-04-30T06:08:38;100895.97;;;9.77;88.84
51849;BME280;38952;51.090;-1.832;2023-04-30T06:11:08;100896.69;;;9.89;88.28
51849;BME280;38952;51.090;-1.832;2023-04-30T06:13:35;100901.66;;;9.92;88.08
51849;BME280;38952;51.090;-1.832;2023-04-30T06:16:00;100902.50;;;9.76;88.24
51849;BME280;38952;51.090;-1.832;2023-04-30T06:18:26;100906.28;;;9.75;89.00
51849;BME280;38952;51.090;-1.832;2023-04-30T06:20:52;100898.09;;;9.75;89.47
51849;BME280;38952;51.090;-1.832;2023-04-30T06:23:17;100902.97;;;9.90;89.23
51849;BME280;38952;51.090;-1.832;2023-04-30T06:25:42;100903.72;;;10.02;88.82
51849;BME280;38952;51.090;-1.832;2023-04-30T06:28:08;100903.78;;;10.07;87.67
51849;BME280;38952;51.090;-1.832;2023-04-30T06:30:35;100904.63;;;10.08;87.94
51849;BME280;38952;51.090;-1.832;2023-04-30T06:33:00;100904.19;;;10.16;88.18
51849;BME280;38952;51.090;-1.832;2023-04-30T06:35:26;100911.63;;;10.38;87.87
51849;BME280;38952;51.090;-1.832;2023-04-30T06:37:52;100915.00;;;10.45;86.79
51849;BME280;38952;51.090;-1.832;2023-04-30T06:40:20;100898.66;;;10.50;87.28
51849;BME280;38952;51.090;-1.832;2023-04-30T06:42:55;100905.69;;;10.90;86.28
51849;BME280;38952;51.090;-1.832;2023-04-30T06:45:23;100893.22;;;10.99;85.40
51849;BME280;38952;51.090;-1.832;2023-04-30T06:47:53;100898.06;;;11.20;84.53
51849;BME280;38952;51.090;-1.832;2023-04-30T06:50:19;100897.16;;;11.36;84.00
51849;BME280;38952;51.090;-1.832;2023-04-30T06:52:46;100891.97;;;11.40;83.25
51849;BME280;38952;51.090;-1.832;2023-04-30T06:55:14;100917.31;;;11.57;83.06
51849;BME280;38952;51.090;-1.832;2023-04-30T06:57:49;100907.34;;;11.46;82.42
51849;BME280;38952;51.090;-1.832;2023-04-30T07:00:14;100929.69;;;11.32;82.41
51849;BME280;38952;51.090;-1.832;2023-04-30T07:02:50;100916.44;;;11.24;82.76
51849;BME280;38952;51.090;-1.832;2023-04-30T07:05:16;100906.63;;;11.28;83.07
51849;BME280;38952;51.090;-1.832;2023-04-30T07:07:42;100913.25;;;11.32;82.60
51849;BME280;38952;51.090;-1.832;2023-04-30T07:10:07;100888.22;;;11.18;82.45
51849;BME280;38952;51.090;-1.832;2023-04-30T07:12:33;100918.91;;;11.53;82.53
51849;BME280;38952;51.090;-1.832;2023-04-30T07:15:16;100902.03;;;11.66;81.78
51849;BME280;38952;51.090;-1.832;2023-04-30T07:17:41;100905.50;;;11.89;81.00
51849;BME280;38952;51.090;-1.832;2023-04-30T07:20:15;100925.00;;;12.30;80.59
51849;BME280;38952;51.090;-1.832;2023-04-30T07:22:43;100904.00;;;12.56;79.21
51849;BME280;38952;51.090;-1.832;2023-04-30T07:25:11;100911.44;;;12.61;78.16
51849;BME280;38952;51.090;-1.832;2023-04-30T07:27:39;100896.00;;;12.45;77.76
51849;BME280;38952;51.090;-1.832;2023-04-30T07:30:09;100900.69;;;12.44;77.08
51849;BME280;38952;51.090;-1.832;2023-04-30T07:32:36;100912.34;;;12.24;77.64
51849;BME280;38952;51.090;-1.832;2023-04-30T07:35:09;100897.84;;;12.29;77.92
51849;BME280;38952;51.090;-1.832;2023-04-30T07:37:40;100886.09;;;12.38;77.74
51849;BME280;38952;51.090;-1.832;2023-04-30T07:40:19;100906.25;;;12.65;78.05
51849;BME280;38952;51.090;-1.832;2023-04-30T07:42:50;100912.13;;;12.99;77.41
51849;BME280;38952;51.090;-1.832;2023-04-30T07:45:25;100895.91;;;12.98;76.17
51849;BME280;38952;51.090;-1.832;2023-04-30T07:47:50;100898.13;;;13.01;75.24
51849;BME280;38952;51.090;-1.832;2023-04-30T07:50:31;100899.16;;;12.84;74.61
51849;BME280;38952;51.090;-1.832;2023-04-30T07:52:58;100890.94;;;12.79;74.39
51849;BME280;38952;51.090;-1.832;2023-04-30T07:55:45;100887.94;;;12.91;74.79
51849;BME280;38952;51.090;-1.832;2023-04-30T07:58:20;100874.53;;;13.00;74.44
51849;BME280;38952;51.090;-1.832;2023-04-30T08:01:17;100918.28;;;13.63;73.88
51849;BME280;38952;51.090;-1.832;2023-04-30T08:03:47;100903.44;;;13.90;72.70
51849;BME280;38952;51.090;-1.832;2023-04-30T08:06:24;100896.59;;;13.87;71.36
51849;BME280;38952;51.090;-1.832;2023-04-30T08:08:54;100896.25;;;14.09;71.68
51849;BME280;38952;51.090;-1.832;2023-04-30T08:11:20;100930.28;;;14.44;70.85
51849;BME280;38952;51.090;-1.832;2023-04-30T08:13:55;100911.25;;;14.58;70.07
51849;BME280;38952;51.090;-1.832;2023-04-30T08:16:33;100897.28;;;14.39;68.66
51849;BME280;38952;51.090;-1.832;2023-04-30T08:19:02;100910.00;;;14.14;69.67
51849;BME280;38952;51.090;-1.832;2023-04-30T08:21:31;100905.91;;;13.91;70.30
51849;BME280;38952;51.090;-1.832;2023-04-30T08:23:57;100921.53;;;14.11;70.70
51849;BME280;38952;51.090;-1.832;2023-04-30T08:26:24;100902.59;;;14.10;70.03
51849;BME280;38952;51.090;-1.832;2023-04-30T08:28:50;100919.06;;;14.20;70.28
51849;BME280;38952;51.090;-1.832;2023-04-30T08:31:28;100903.41;;;14.05;70.18
51849;BME280;38952;51.090;-1.832;2023-04-30T08:33:56;100901.19;;;14.23;69.75
51849;BME280;38952;51.090;-1.832;2023-04-30T08:36:22;100917.59;;;14.59;69.30
51849;BME280;38952;51.090;-1.832;2023-04-30T08:38:55;100909.31;;;14.69;68.97
51849;BME280;38952;51.090;-1.832;2023-04-30T08:41:25;100898.72;;;14.92;68.51
51849;BME280;38952;51.090;-1.832;2023-04-30T08:44:00;100900.09;;;15.39;67.48
51849;BME280;38952;51.090;-1.832;2023-04-30T08:46:47;100893.72;;;15.78;65.85
51849;BME280;38952;51.090;-1.832;2023-04-30T08:49:23;100890.16;;;16.07;65.65
51849;BME280;38952;51.090;-1.832;2023-04-30T08:51:49;100904.31;;;16.25;64.15
51849;BME280;38952;51.090;-1.832;2023-04-30T08:54:25;100903.25;;;16.20;64.24
51849;BME280;38952;51.090;-1.832;2023-04-30T08:56:50;100916.69;;;16.51;64.03
51849;BME280;38952;51.090;-1.832;2023-04-30T08:59:16;100883.66;;;16.46;62.10
51849;BME280;38952;51.090;-1.832;2023-04-30T09:01:44;100886.34;;;16.51;61.72
51849;BME280;38952;51.090;-1.832;2023-04-30T09:04:10;100909.69;;;16.83;61.91
51849;BME280;38952;51.090;-1.832;2023-04-30T09:06:38;100874.47;;;16.75;61.76
51849;BME280;38952;51.090;-1.832;2023-04-30T09:09:16;100899.88;;;17.15;60.67
51849;BME280;38952;51.090;-1.832;2023-04-30T09:11:41;100886.44;;;17.27;59.56
51849;BME280;38952;51.090;-1.832;2023-04-30T09:14:12;100903.03;;;17.27;59.13
51849;BME280;38952;51.090;-1.832;2023-04-30T09:16:45;100899.56;;;16.98;57.75
51849;BME280;38952;51.090;-1.832;2023-04-30T09:19:24;100900.41;;;16.74;56.77
51849;BME280;38952;51.090;-1.832;2023-04-30T09:21:53;100902.06;;;16.75;56.58
51849;BME280;38952;51.090;-1.832;2023-04-30T09:24:19;100898.38;;;17.04;55.13
51849;BME280;38952;51.090;-1.832;2023-04-30T09:29:21;100895.41;;;17.19;52.92
51849;BME280;38952;51.090;-1.832;2023-04-30T09:31:49;100890.78;;;16.96;52.56
51849;BME280;38952;51.090;-1.832;2023-04-30T09:34:33;100890.31;;;16.88;53.64
51849;BME280;38952;51.090;-1.832;2023-04-30T09:37:03;100893.69;;;17.04;53.93
51849;BME280;38952;51.090;-1.832;2023-04-30T09:39:31;100886.66;;;16.93;52.27
51849;BME280;38952;51.090;-1.832;2023-04-30T09:42:26;100898.72;;;16.78;52.85
51849;BME280;38952;51.090;-1.832;2023-04-30T09:44:52;100882.38;;;16.38;53.55
51849;BME280;38952;51.090;-1.832;2023-04-30T09:47:19;100907.97;;;16.44;54.62
51849;BME280;38952;51.090;-1.832;2023-04-30T09:49:49;100876.19;;;16.22;54.66
51849;BME280;38952;51.090;-1.832;2023-04-30T09:52:20;100887.16;;;16.28;53.79
51849;BME280;38952;51.090;-1.832;2023-04-30T09:54:46;100900.66;;;16.05;54.26
51849;BME280;38952;51.090;-1.832;2023-04-30T09:57:14;100878.69;;;15.95;54.27
51849;BME280;38952;51.090;-1.832;2023-04-30T09:59:51;100892.44;;;16.00;53.51
51849;BME280;38952;51.090;-1.832;2023-04-30T10:02:20;100893.50;;;15.69;53.98
51849;BME280;38952;51.090;-1.832;2023-04-30T10:04:51;100885.28;;;15.64;53.77
51849;BME280;38952;51.090;-1.832;2023-04-30T10:07:28;100906.38;;;15.84;54.15
51849;BME280;38952;51.090;-1.832;2023-04-30T10:10:09;100880.63;;;15.94;53.99
51849;BME280;38952;51.090;-1.832;2023-04-30T10:12:46;100891.25;;;16.06;53.01
51849;BME280;38952;51.090;-1.832;2023-04-30T10:17:49;100917.00;;;16.26;53.03
51849;BME280;38952;51.090;-1.832;2023-04-30T10:20:16;100907.69;;;16.16;52.74
51849;BME280;38952;51.090;-1.832;2023-04-30T10:22:46;100899.22;;;16.08;53.49
51849;BME280;38952;51.090;-1.832;2023-04-30T10:25:12;100884.34;;;16.09;53.62
51849;BME280;38952;51.090;-1.832;2023-04-30T10:27:38;100895.16;;;16.29;53.47
51849;BME280;38952;51.090;-1.832;2023-04-30T10:30:05;100880.69;;;16.62;52.27
51849;BME280;38952;51.090;-1.832;2023-04-30T10:32:37;100896.56;;;16.75;50.98
51849;BME280;38952;51.090;-1.832;2023-04-30T10:35:39;100886.16;;;16.67;50.59
51849;BME280;38952;51.090;-1.832;2023-04-30T10:38:16;100901.81;;;16.96;50.22
51849;BME280;38952;51.090;-1.832;2023-04-30T10:40:46;100898.91;;;17.25;50.54
51849;BME280;38952;51.090;-1.832;2023-04-30T10:43:17;100884.63;;;17.37;49.17
51849;BME280;38952;51.090;-1.832;2023-04-30T10:45:46;100901.72;;;17.39;49.52
51849;BME280;38952;51.090;-1.832;2023-04-30T10:48:15;100889.13;;;16.95;50.47
51849;BME280;38952;51.090;-1.832;2023-04-30T10:50:54;100886.44;;;16.41;51.92
51849;BME280;38952;51.090;-1.832;2023-04-30T10:53:26;100908.16;;;16.53;52.89
51849;BME280;38952;51.090;-1.832;2023-04-30T10:55:59;100888.47;;;16.35;53.05
51849;BME280;38952;51.090;-1.832;2023-04-30T10:58:34;100906.91;;;16.40;53.51
51849;BME280;38952;51.090;-1.832;2023-04-30T11:01:11;100907.31;;;16.52;53.60
51849;BME280;38952;51.090;-1.832;2023-04-30T11:03:39;100895.75;;;16.50;52.44
51849;BME280;38952;51.090;-1.832;2023-04-30T11:06:21;100894.09;;;16.49;53.00
51849;BME280;38952;51.090;-1.832;2023-04-30T11:09:21;100863.88;;;15.85;54.79
51849;BME280;38952;51.090;-1.832;2023-04-30T11:15:33;100866.53;;;14.87;60.13
51849;BME280;38952;51.090;-1.832;2023-04-30T11:18:19;100870.84;;;15.04;60.37
51849;BME280;38952;51.090;-1.832;2023-04-30T11:20:57;100869.91;;;15.24;59.62
51849;BME280;38952;51.090;-1.832;2023-04-30T11:26:21;100860.53;;;16.18;55.86
51849;BME280;38952;51.090;-1.832;2023-04-30T11:29:10;100851.81;;;16.73;54.12
51849;BME280;38952;51.090;-1.832;2023-04-30T11:31:46;100836.88;;;17.17;52.83
51849;BME280;38952;51.090;-1.832;2023-04-30T11:37:41;100899.16;;;17.94;50.50
51849;BME280;38952;51.090;-1.832;2023-04-30T11:40:13;100874.88;;;17.91;51.25
51849;BME280;38952;51.090;-1.832;2023-04-30T11:42:51;100882.66;;;17.89;51.15
51849;BME280;38952;51.090;-1.832;2023-04-30T11:45:40;100894.84;;;17.88;51.41
51849;BME280;38952;51.090;-1.832;2023-04-30T11:49:12;100840.59;;;18.20;50.96
51849;BME280;38952;51.090;-1.832;2023-04-30T11:58:35;100893.09;;;18.53;48.83
51849;BME280;38952;51.090;-1.832;2023-04-30T12:01:50;100862.84;;;17.82;49.04
51849;BME280;38952;51.090;-1.832;2023-04-30T12:04:33;100858.69;;;17.52;49.71
51849;BME280;38952;51.090;-1.832;2023-04-30T12:06:59;100882.91;;;17.74;49.93
51849;BME280;38952;51.090;-1.832;2023-04-30T12:09:24;100846.38;;;17.44;49.36
51849;BME280;38952;51.090;-1.832;2023-04-30T12:11:50;100875.38;;;17.47;49.58
51849;BME280;38952;51.090;-1.832;2023-04-30T12:14:15;100863.91;;;17.20;50.00
51849;BME280;38952;51.090;-1.832;2023-04-30T12:16:46;100875.09;;;17.10;49.89
51849;BME280;38952;51.090;-1.832;2023-04-30T12:19:20;100866.88;;;17.05;50.16
51849;BME280;38952;51.090;-1.832;2023-04-30T12:21:47;100851.31;;;16.71;50.54
51849;BME280;38952;51.090;-1.832;2023-04-30T12:24:17;100866.97;;;16.56;51.14
51849;BME280;38952;51.090;-1.832;2023-04-30T12:26:43;100853.53;;;16.26;51.93
51849;BME280;38952;51.090;-1.832;2023-04-30T12:29:13;100870.59;;;16.28;51.99
51849;BME280;38952;51.090;-1.832;2023-04-30T12:31:39;100867.41;;;15.91;52.99
51849;BME280;38952;51.090;-1.832;2023-04-30T12:34:07;100868.75;;;15.64;53.28
51849;BME280;38952;51.090;-1.832;2023-04-30T12:36:35;100862.03;;;15.46;54.22
51849;BME280;38952;51.090;-1.832;2023-04-30T12:39:08;100863.06;;;15.50;54.46
51849;BME280;38952;51.090;-1.832;2023-04-30T12:41:39;100847.19;;;15.71;54.72
51849;BME280;38952;51.090;-1.832;2023-04-30T12:44:21;100848.38;;;15.95;53.99
51849;BME280;38952;51.090;-1.832;2023-04-30T12:46:48;100853.09;;;15.89;53.54
51849;BME280;38952;51.090;-1.832;2023-04-30T12:49:41;100854.91;;;15.99;53.74
51849;BME280;38952;51.090;-1.832;2023-04-30T12:52:10;100831.53;;;15.96;53.38
51849;BME280;38952;51.090;-1.832;2023-04-30T12:54:37;100833.13;;;16.27;52.65
51849;BME280;38952;51.090;-1.832;2023-04-30T12:57:08;100839.53;;;16.41;52.36
51849;BME280;38952;51.090;-1.832;2023-04-30T13:02:06;100841.44;;;16.46;51.46
51849;BME280;38952;51.090;-1.832;2023-04-30T13:04:40;100851.00;;;16.53;51.38
51849;BME280;38952;51.090;-1.832;2023-04-30T13:07:09;100848.47;;;16.76;51.36
51849;BME280;38952;51.090;-1.832;2023-04-30T13:09:37;100836.25;;;16.82;51.22
51849;BME280;38952;51.090;-1.832;2023-04-30T13:12:03;100828.69;;;16.69;51.04
51849;BME280;38952;51.090;-1.832;2023-04-30T13:14:31;100829.66;;;16.59;50.95
51849;BME280;38952;51.090;-1.832;2023-04-30T13:16:59;100838.69;;;16.65;50.97
51849;BME280;38952;51.090;-1.832;2023-04-30T13:19:34;100841.91;;;16.72;50.99
51849;BME280;38952;51.090;-1.832;2023-04-30T13:21:59;100829.63;;;16.40;51.14
51849;BME280;38952;51.090;-1.832;2023-04-30T13:24:26;100821.88;;;16.42;51.93
51849;BME280;38952;51.090;-1.832;2023-04-30T13:26:51;100811.22;;;16.11;51.43
51849;BME280;38952;51.090;-1.832;2023-04-30T13:29:17;100828.47;;;15.98;52.30
51849;BME280;38952;51.090;-1.832;2023-04-30T13:31:45;100825.53;;;15.89;52.78
51849;BME280;38952;51.090;-1.832;2023-04-30T13:34:15;100818.84;;;15.66;53.02
51849;BME280;38952;51.090;-1.832;2023-04-30T13:36:40;100815.53;;;15.34;53.20